Time;durP1;ratioP1;P1;durP2;ratioP2;P2;SDS_P1;SDS_P2;PMS_P1;PMS_P2;Temp;Humidity;BMP_temperature;BMP_pressure;BME280_temperature;BME280_humidity;BME280_pressure;Samples;Min_cycle;Max_cycle;Signal;HPM_P1;HPM_P2
2023/01/27 00:00:25;;;;;;;13.93;6.30;;;-1.30;99.90;;;;;;5085365;28;20299;-76
2023/01/27 00:02:51;;;;;;;16.05;7.15;;;-1.30;99.90;;;;;;5092759;28;20060;-77
2023/01/27 00:05:17;;;;;;;14.00;6.50;;;-1.30;99.90;;;;;;5091546;28;20031;-77
2023/01/27 00:07:46;;;;;;;14.18;6.38;;;-1.20;99.90;;;;;;5093538;28;20035;-75
2023/01/27 00:10:15;;;;;;;15.35;6.15;;;-1.30;99.90;;;;;;5091184;28;20024;-78
2023/01/27 00:15:29;;;;;;;12.05;6.15;;;-1.30;99.90;;;;;;5080169;28;20090;-77
2023/01/27 00:17:56;;;;;;;12.00;6.20;;;-1.30;99.90;;;;;;5095861;28;20024;-78
2023/01/27 00:26:07;;;;;;;13.40;6.53;;;-1.30;99.90;;;;;;5057125;28;20044;-77
2023/01/27 00:28:37;;;;;;;11.30;5.53;;;-1.30;99.90;;;;;;5087544;28;20032;-77
2023/01/27 00:31:04;;;;;;;12.57;5.95;;;-1.30;99.90;;;;;;5095069;28;20020;-76
2023/01/27 00:33:30;;;;;;;12.68;6.00;;;-1.30;99.90;;;;;;5083388;28;20024;-77
2023/01/27 00:35:58;;;;;;;11.13;5.50;;;-1.40;99.90;;;;;;5101570;28;20033;-76
2023/01/27 00:38:28;;;;;;;11.75;5.97;;;-1.40;99.90;;;;;;5099183;28;20083;-77
2023/01/27 00:43:39;;;;;;;10.93;5.85;;;-1.40;99.90;;;;;;5092610;28;20046;-76
2023/01/27 00:46:05;;;;;;;10.27;5.00;;;-1.30;99.90;;;;;;5066464;28;20621;-77
2023/01/27 00:48:31;;;;;;;10.65;5.07;;;-1.40;99.90;;;;;;5095652;28;20111;-77
2023/01/27 00:50:57;;;;;;;9.55;5.00;;;-1.30;99.90;;;;;;5088146;28;20049;-76
2023/01/27 00:53:24;;;;;;;8.65;4.43;;;-1.30;99.90;;;;;;5082464;28;20036;-76
2023/01/27 00:55:50;;;;;;;10.00;5.00;;;-1.30;99.90;;;;;;5106379;28;20022;-77
2023/01/27 00:58:16;;;;;;;9.88;5.15;;;-1.40;99.90;;;;;;5091082;28;20024;-76
2023/01/27 01:00:42;;;;;;;10.40;5.15;;;-1.30;99.90;;;;;;5070029;28;20602;-78
2023/01/27 01:03:07;;;;;;;9.25;5.13;;;-1.30;99.90;;;;;;5081094;28;20062;-78
2023/01/27 01:05:33;;;;;;;11.15;5.63;;;-1.40;99.90;;;;;;5082158;28;20024;-77
2023/01/27 01:07:59;;;;;;;12.27;5.43;;;-1.40;99.90;;;;;;5070987;28;20269;-77
2023/01/27 01:10:25;;;;;;;11.82;6.03;;;-1.30;99.90;;;;;;5100892;28;20024;-76
2023/01/27 01:12:51;;;;;;;12.13;5.22;;;-1.30;99.90;;;;;;5093337;28;20045;-76
2023/01/27 01:15:17;;;;;;;11.77;5.93;;;-1.40;99.90;;;;;;5085255;28;20068;-77
2023/01/27 01:17:43;;;;;;;12.38;5.95;;;-1.40;99.90;;;;;;5097063;28;20113;-75
2023/01/27 01:20:10;;;;;;;11.07;5.72;;;-1.40;99.90;;;;;;5091184;28;20029;-76
2023/01/27 01:22:35;;;;;;;11.40;5.15;;;-1.40;99.90;;;;;;5075505;28;20028;-75
2023/01/27 01:25:02;;;;;;;10.90;5.35;;;-1.40;99.90;;;;;;5077215;28;20033;-76
2023/01/27 01:27:28;;;;;;;12.07;5.30;;;-1.50;99.90;;;;;;5086343;28;20036;-76
2023/01/27 01:29:54;;;;;;;13.52;5.88;;;-1.40;99.90;;;;;;5078300;28;20517;-76
2023/01/27 01:32:20;;;;;;;12.15;5.30;;;-1.50;99.90;;;;;;5074457;28;20040;-76
2023/01/27 01:34:46;;;;;;;12.43;5.45;;;-1.50;99.90;;;;;;5079933;28;20115;-76
2023/01/27 01:37:15;;;;;;;13.60;6.32;;;-1.50;99.90;;;;;;5077799;28;20028;-77
2023/01/27 01:39:41;;;;;;;13.85;6.53;;;-1.50;99.90;;;;;;5101356;28;20055;-76
2023/01/27 01:42:07;;;;;;;16.27;6.90;;;-1.50;99.90;;;;;;5100922;28;20024;-76
2023/01/27 01:44:33;;;;;;;17.10;6.75;;;-1.40;99.90;;;;;;5080298;28;20048;-76
2023/01/27 01:46:59;;;;;;;17.70;7.15;;;-1.40;99.90;;;;;;5090190;28;20036;-76
2023/01/27 01:49:39;;;;;;;12.35;6.47;;;-1.40;99.90;;;;;;5076457;28;20085;-76
2023/01/27 01:52:12;;;;;;;14.43;6.63;;;-1.40;99.90;;;;;;5086258;28;20028;-76
2023/01/27 01:54:46;;;;;;;12.40;6.68;;;-1.40;99.90;;;;;;5101139;28;20047;-75
2023/01/27 01:57:20;;;;;;;15.63;5.80;;;-1.30;99.90;;;;;;5083033;28;20465;-76
2023/01/27 01:59:52;;;;;;;14.40;6.43;;;-1.30;99.90;;;;;;5078930;28;20032;-77
2023/01/27 02:02:22;;;;;;;14.10;6.97;;;-1.40;99.90;;;;;;5062551;28;20044;-76
2023/01/27 02:05:06;;;;;;;11.55;6.00;;;-1.40;99.90;;;;;;5080747;28;20042;-76
2023/01/27 02:07:41;;;;;;;14.57;6.35;;;-1.40;99.90;;;;;;5084076;28;20029;-75
2023/01/27 02:10:07;;;;;;;;;;;-1.40;99.90;;;;;;5099199;28;20396;-76
2023/01/27 02:12:34;;;;;;;14.77;5.97;;;-1.40;99.90;;;;;;5096839;28;19911;-76
2023/01/27 02:15:00;;;;;;;15.75;6.28;;;-1.40;99.90;;;;;;5087993;28;20068;-77
2023/01/27 02:17:27;;;;;;;13.77;6.10;;;-1.40;99.90;;;;;;5095330;28;20036;-77
2023/01/27 02:20:08;;;;;;;15.00;6.55;;;-1.40;99.90;;;;;;5076179;28;20037;-76
2023/01/27 02:23:02;;;;;;;13.23;5.97;;;-1.40;99.90;;;;;;5093413;28;20509;-76
2023/01/27 02:25:34;;;;;;;12.75;5.70;;;-1.50;99.90;;;;;;5107076;28;20036;-75
2023/01/27 02:28:05;;;;;;;11.27;5.45;;;-1.40;99.90;;;;;;5092007;28;20526;-76
2023/01/27 02:30:31;;;;;;;14.32;6.32;;;-1.40;99.90;;;;;;5079435;28;20045;-77
2023/01/27 02:32:57;;;;;;;12.85;5.88;;;-1.40;99.90;;;;;;5076731;28;20024;-76
2023/01/27 02:35:36;;;;;;;16.67;6.38;;;-1.40;99.90;;;;;;5088708;28;20370;-76
2023/01/27 02:38:06;;;;;;;13.27;5.57;;;-1.40;99.90;;;;;;5093378;28;20401;-76
2023/01/27 02:40:33;;;;;;;14.25;6.00;;;-1.50;99.90;;;;;;5100458;28;20656;-77
2023/01/27 02:42:59;;;;;;;16.83;7.80;;;-1.50;99.90;;;;;;5089496;28;20431;-77
2023/01/27 02:45:25;;;;;;;15.27;6.88;;;-1.50;99.90;;;;;;5075371;28;20488;-77
2023/01/27 02:47:52;;;;;;;15.20;6.75;;;-1.50;99.90;;;;;;5098600;28;20039;-77
2023/01/27 02:50:18;;;;;;;15.32;6.43;;;-1.50;99.90;;;;;;5089811;28;20054;-77
2023/01/27 02:52:44;;;;;;;15.98;6.63;;;-1.50;99.90;;;;;;5081922;28;20027;-77
2023/01/27 02:55:11;;;;;;;14.95;6.47;;;-1.60;99.90;;;;;;5088703;28;20116;-75
2023/01/27 02:57:38;;;;;;;15.95;7.15;;;-1.50;99.90;;;;;;5098599;28;20034;-77
2023/01/27 03:00:24;;;;;;;13.95;7.00;;;-1.50;99.90;;;;;;5079508;28;20036;-76
2023/01/27 03:02:50;;;;;;;14.13;6.78;;;-1.50;99.90;;;;;;5087983;28;20056;-76
2023/01/27 03:05:16;;;;;;;16.55;6.97;;;-1.50;99.90;;;;;;5093413;28;20406;-76
2023/01/27 03:07:42;;;;;;;16.40;6.43;;;-1.50;99.90;;;;;;5098136;28;20024;-75
2023/01/27 03:10:09;;;;;;;18.10;7.22;;;-1.50;99.90;;;;;;5060020;28;20062;-75
2023/01/27 03:12:34;;;;;;;16.90;7.47;;;-1.50;99.90;;;;;;5098932;28;20047;-76
2023/01/27 03:20:30;;;;;;;16.33;7.38;;;-1.50;99.90;;;;;;5086856;28;20029;-76
2023/01/27 03:22:55;;;;;;;19.88;8.63;;;-1.50;99.90;;;;;;5079637;28;20035;-75
2023/01/27 03:25:23;;;;;;;19.02;7.63;;;-1.50;99.90;;;;;;5083161;28;20085;-75
2023/01/27 03:27:54;;;;;;;20.73;8.23;;;-1.40;99.90;;;;;;5069511;28;20021;-75
2023/01/27 03:30:28;;;;;;;16.48;7.60;;;-1.50;99.90;;;;;;5086102;28;20036;-75
2023/01/27 03:33:10;;;;;;;18.95;7.68;;;-1.40;99.90;;;;;;5095309;28;20082;-75
2023/01/27 03:35:48;;;;;;;16.52;7.00;;;-1.50;99.90;;;;;;5079499;28;20036;-75
2023/01/27 03:46:33;;;;;;;16.10;7.05;;;-1.60;99.90;;;;;;5080266;28;20622;-77
2023/01/27 03:48:59;;;;;;;15.77;6.88;;;-1.50;99.90;;;;;;5083560;28;20042;-77
2023/01/27 03:51:26;;;;;;;19.58;7.65;;;-1.50;99.90;;;;;;5078669;28;20062;-77
2023/01/27 03:53:52;;;;;;;14.45;6.57;;;-1.60;99.90;;;;;;5091754;28;20032;-76
2023/01/27 03:56:20;;;;;;;16.88;7.65;;;-1.60;99.90;;;;;;5077811;28;20128;-77
2023/01/27 03:58:48;;;;;;;21.08;8.10;;;-1.60;99.90;;;;;;5078432;28;20052;-77
2023/01/27 04:01:20;;;;;;;20.20;7.78;;;-1.60;99.90;;;;;;5076932;28;20059;-77
2023/01/27 04:06:53;;;;;;;15.80;7.03;;;-1.60;99.90;;;;;;5088295;28;20029;-77
2023/01/27 04:09:34;;;;;;;17.58;7.75;;;-1.50;99.90;;;;;;5088695;28;20448;-77
2023/01/27 04:12:04;;;;;;;15.02;6.25;;;-1.60;99.90;;;;;;5090638;28;20154;-77
2023/01/27 04:14:48;;;;;;;13.10;6.15;;;-1.60;99.90;;;;;;5093438;28;20037;-77
2023/01/27 04:17:18;;;;;;;15.75;7.20;;;-1.60;99.90;;;;;;5092257;28;20025;-77
2023/01/27 04:19:44;;;;;;;18.85;7.68;;;-1.60;99.90;;;;;;5091651;28;20160;-76
2023/01/27 04:22:11;;;;;;;16.83;7.18;;;-1.50;99.90;;;;;;5092253;28;20032;-76
2023/01/27 04:24:37;;;;;;;14.70;6.32;;;-1.50;99.90;;;;;;5098759;28;20104;-76
2023/01/27 04:27:05;;;;;;;17.20;7.43;;;-1.60;99.90;;;;;;5100005;28;20062;-76
2023/01/27 04:29:34;;;;;;;16.90;7.57;;;-1.60;99.90;;;;;;5091822;28;20143;-76
2023/01/27 04:32:02;;;;;;;12.48;5.65;;;-1.60;99.90;;;;;;5103456;28;20024;-76
2023/01/27 04:34:28;;;;;;;15.48;6.43;;;-1.60;99.90;;;;;;5086314;28;20396;-76
2023/01/27 04:36:55;;;;;;;14.23;6.55;;;-1.60;99.90;;;;;;5100222;28;20042;-76
2023/01/27 04:39:22;;;;;;;13.02;6.63;;;-1.60;99.90;;;;;;5091443;28;20090;-76
2023/01/27 04:41:48;;;;;;;16.50;6.90;;;-1.60;99.90;;;;;;5107945;28;20511;-76
2023/01/27 04:44:14;;;;;;;15.50;6.60;;;-1.60;99.90;;;;;;5101571;28;20047;-75
2023/01/27 04:46:41;;;;;;;17.52;6.72;;;-1.70;99.90;;;;;;5086730;28;21336;-76
2023/01/27 04:49:07;;;;;;;14.07;6.40;;;-1.60;99.90;;;;;;5073563;28;20032;-77
2023/01/27 04:51:33;;;;;;;15.32;6.45;;;-1.60;99.90;;;;;;5073367;28;20035;-77
2023/01/27 04:54:02;;;;;;;15.23;6.60;;;-1.60;99.90;;;;;;5088792;28;20745;-76
2023/01/27 04:56:31;;;;;;;16.25;7.32;;;-1.60;99.90;;;;;;5092241;28;20032;-76
2023/01/27 04:59:03;;;;;;;16.77;7.07;;;-1.60;99.90;;;;;;5082162;28;20127;-75
2023/01/27 05:01:29;;;;;;;16.95;7.07;;;-1.60;99.90;;;;;;5099290;28;20039;-76
2023/01/27 05:03:55;;;;;;;16.55;7.15;;;-1.60;99.90;;;;;;5094722;28;20119;-77
2023/01/27 05:06:21;;;;;;;15.20;6.68;;;-1.60;99.90;;;;;;5079844;28;20040;-76
2023/01/27 05:08:48;;;;;;;13.38;6.35;;;-1.60;99.90;;;;;;5083054;28;20046;-76
2023/01/27 05:11:14;;;;;;;15.02;6.85;;;-1.60;99.90;;;;;;5095483;28;20019;-76
2023/01/27 05:13:40;;;;;;;19.00;7.93;;;-1.60;99.90;;;;;;5103029;28;20528;-77
2023/01/27 05:16:15;;;;;;;15.55;6.45;;;-1.60;99.90;;;;;;5089450;28;20029;-77
2023/01/27 05:18:43;;;;;;;16.48;7.28;;;-1.60;99.90;;;;;;5087652;28;20031;-77
2023/01/27 05:21:13;;;;;;;15.50;6.53;;;-1.60;99.90;;;;;;5089096;28;20062;-77
2023/01/27 05:23:39;;;;;;;16.50;7.05;;;-1.60;99.90;;;;;;5092974;28;20023;-77
2023/01/27 05:26:14;;;;;;;16.95;7.40;;;-1.60;99.90;;;;;;5099914;28;20036;-76
2023/01/27 05:28:42;;;;;;;12.48;6.32;;;-1.50;99.90;;;;;;5080713;28;20056;-77
2023/01/27 05:31:21;;;;;;;14.05;6.22;;;-1.60;99.90;;;;;;5085692;28;20025;-76
2023/01/27 05:33:49;;;;;;;14.07;6.35;;;-1.50;99.90;;;;;;5089767;28;20460;-77
2023/01/27 05:36:17;;;;;;;12.52;6.70;;;-1.60;99.90;;;;;;5094427;28;20034;-75
2023/01/27 05:38:43;;;;;;;16.70;6.97;;;-1.60;99.90;;;;;;5078777;28;20029;-75
2023/01/27 05:41:10;;;;;;;13.80;6.43;;;-1.60;99.90;;;;;;5079954;28;20103;-77
2023/01/27 05:43:38;;;;;;;13.10;6.25;;;-1.60;99.90;;;;;;5077543;28;20039;-77
2023/01/27 05:46:10;;;;;;;15.68;6.32;;;-1.60;99.90;;;;;;5074482;28;20029;-75
2023/01/27 05:48:48;;;;;;;13.68;6.00;;;-1.60;99.90;;;;;;5084859;28;20523;-76
2023/01/27 05:51:15;;;;;;;15.05;5.90;;;-1.60;99.90;;;;;;5096915;28;20031;-76
2023/01/27 05:53:41;;;;;;;15.95;5.82;;;-1.60;99.90;;;;;;5096398;28;20042;-76
2023/01/27 05:56:09;;;;;;;14.15;6.38;;;-1.60;99.90;;;;;;5100480;28;20055;-76
2023/01/27 05:58:35;;;;;;;15.10;6.97;;;-1.60;99.90;;;;;;5088856;28;20036;-77
2023/01/27 06:01:08;;;;;;;14.77;7.03;;;-1.60;99.90;;;;;;5085767;28;20024;-76
2023/01/27 06:03:35;;;;;;;16.30;7.05;;;-1.50;99.90;;;;;;5100396;28;20134;-76
2023/01/27 06:06:01;;;;;;;14.23;6.53;;;-1.60;99.90;;;;;;5103793;28;20102;-76
2023/01/27 06:08:27;;;;;;;13.38;6.55;;;-1.60;99.90;;;;;;5084001;28;20047;-76
2023/01/27 06:10:53;;;;;;;15.60;6.72;;;-1.60;99.90;;;;;;5084703;28;20031;-77
2023/01/27 06:13:23;;;;;;;12.48;6.53;;;-1.60;99.90;;;;;;5101976;28;20538;-76
2023/01/27 06:15:49;;;;;;;14.90;6.38;;;-1.60;99.90;;;;;;5077353;28;20031;-76
2023/01/27 06:18:16;;;;;;;20.85;9.20;;;-1.50;99.90;;;;;;5088609;28;20032;-76
2023/01/27 06:20:44;;;;;;;32.63;15.77;;;-1.50;99.90;;;;;;5102551;28;20023;-76
2023/01/27 06:23:11;;;;;;;38.55;21.65;;;-1.50;99.90;;;;;;5088876;28;20032;-76
2023/01/27 06:25:38;;;;;;;20.48;12.45;;;-1.50;99.90;;;;;;5096917;28;20046;-76
2023/01/27 06:28:05;;;;;;;17.45;8.60;;;-1.40;99.90;;;;;;5105488;28;20108;-76
2023/01/27 06:30:35;;;;;;;18.65;8.55;;;-1.40;99.90;;;;;;5102116;28;20521;-77
2023/01/27 06:33:02;;;;;;;15.48;7.45;;;-1.40;99.90;;;;;;5111415;28;20031;-76
2023/01/27 06:35:29;;;;;;;15.23;6.60;;;-1.40;99.90;;;;;;5101456;28;20057;-75
2023/01/27 06:37:57;;;;;;;16.60;6.88;;;-1.50;99.90;;;;;;5096544;28;20028;-76
2023/01/27 06:40:25;;;;;;;16.73;6.43;;;-1.50;99.90;;;;;;5090555;28;20036;-76
2023/01/27 06:42:50;;;;;;;15.40;6.82;;;-1.40;99.90;;;;;;5097362;28;20501;-75
2023/01/27 06:45:17;;;;;;;16.13;7.15;;;-1.40;99.90;;;;;;5092869;28;20464;-75
2023/01/27 06:47:43;;;;;;;16.65;7.00;;;-1.40;99.90;;;;;;5080704;28;20047;-76
2023/01/27 06:50:10;;;;;;;16.30;7.00;;;-1.40;99.90;;;;;;5092303;28;20089;-77
2023/01/27 06:52:36;;;;;;;12.55;6.07;;;-1.40;99.90;;;;;;5088264;28;20060;-77
2023/01/27 06:55:03;;;;;;;15.32;6.97;;;-1.40;99.90;;;;;;5086327;28;20062;-77
2023/01/27 06:57:28;;;;;;;15.55;6.30;;;-1.30;99.90;;;;;;5098813;28;20496;-76
2023/01/27 06:59:55;;;;;;;18.70;7.35;;;-1.40;99.90;;;;;;5090175;28;20245;-76
2023/01/27 07:02:21;;;;;;;18.50;7.70;;;-1.30;99.90;;;;;;5089445;28;20039;-76
2023/01/27 07:04:47;;;;;;;17.85;6.90;;;-1.30;99.90;;;;;;5090350;28;20523;-76
2023/01/27 07:07:12;;;;;;;14.38;7.15;;;-1.30;99.90;;;;;;5078272;28;20408;-77
2023/01/27 07:09:38;;;;;;;15.50;6.47;;;-1.40;99.90;;;;;;5081626;28;20032;-77
2023/01/27 07:12:04;;;;;;;13.85;6.38;;;-1.40;99.90;;;;;;5086877;28;20108;-76
2023/01/27 07:14:30;;;;;;;14.68;6.85;;;-1.40;99.90;;;;;;5031776;28;20107;-77
2023/01/27 07:16:56;;;;;;;16.35;6.18;;;-1.40;99.90;;;;;;5076181;28;20020;-77
2023/01/27 07:19:22;;;;;;;15.98;7.20;;;-1.40;99.90;;;;;;5078126;28;20396;-75
2023/01/27 07:21:48;;;;;;;13.68;5.78;;;-1.40;99.90;;;;;;5091347;28;20086;-77
2023/01/27 07:24:13;;;;;;;14.20;6.47;;;-1.30;99.90;;;;;;5088463;28;20131;-77
2023/01/27 07:26:40;;;;;;;13.30;6.13;;;-1.30;99.90;;;;;;5089151;28;20058;-76
2023/01/27 07:29:05;;;;;;;14.43;5.93;;;-1.30;99.90;;;;;;5086400;28;20028;-76
2023/01/27 07:31:33;;;;;;;14.85;5.85;;;-1.30;99.90;;;;;;5061655;28;20036;-76
2023/01/27 07:33:58;;;;;;;16.75;5.80;;;-1.30;99.90;;;;;;5074808;28;20567;-77
2023/01/27 07:36:24;;;;;;;14.75;6.00;;;-1.20;99.90;;;;;;5080707;28;20079;-76
2023/01/27 07:38:50;;;;;;;11.07;5.28;;;-1.30;99.90;;;;;;5078120;28;20543;-76
2023/01/27 07:41:17;;;;;;;12.00;4.97;;;-1.20;99.90;;;;;;5076425;28;20036;-76
2023/01/27 07:43:43;;;;;;;13.13;5.70;;;-1.30;99.90;;;;;;5081677;28;20032;-77
2023/01/27 07:46:08;;;;;;;10.65;5.25;;;-1.20;99.90;;;;;;5063617;28;20039;-76
2023/01/27 07:48:34;;;;;;;12.30;5.13;;;-1.20;99.90;;;;;;5078211;28;20262;-76
2023/01/27 07:51:00;;;;;;;12.27;5.28;;;-1.20;99.90;;;;;;5078548;28;20117;-78
2023/01/27 07:53:26;;;;;;;12.73;5.50;;;-1.30;99.90;;;;;;5075522;28;20054;-79
2023/01/27 07:55:52;;;;;;;13.20;4.90;;;-1.30;99.90;;;;;;5033680;28;20653;-75
2023/01/27 07:58:18;;;;;;;9.48;4.53;;;-1.20;99.90;;;;;;5067946;28;20086;-76
2023/01/27 08:00:44;;;;;;;12.95;5.32;;;-1.20;99.90;;;;;;5081420;28;20039;-76
2023/01/27 08:03:21;;;;;;;10.30;4.43;;;-1.20;99.90;;;;;;5090292;28;20032;-77
2023/01/27 08:05:48;;;;;;;12.73;5.10;;;-1.20;99.90;;;;;;5080909;28;20032;-75
2023/01/27 08:08:14;;;;;;;11.68;5.85;;;-1.30;99.90;;;;;;5084423;28;20039;-79
2023/01/27 08:10:40;;;;;;;10.35;4.50;;;-1.20;99.90;;;;;;5070506;28;20024;-77
2023/01/27 08:13:06;;;;;;;10.02;4.82;;;-1.20;99.90;;;;;;5081278;28;20097;-76
2023/01/27 08:15:32;;;;;;;9.68;4.85;;;-1.20;99.90;;;;;;5079019;28;20400;-78
2023/01/27 08:17:58;;;;;;;13.95;6.05;;;-1.10;99.90;;;;;;5050516;28;20025;-78
2023/01/27 08:20:26;;;;;;;13.73;4.90;;;-1.10;99.90;;;;;;5091909;28;20708;-78
2023/01/27 08:22:52;;;;;;;11.80;5.22;;;-1.00;99.90;;;;;;5088066;28;20024;-78
2023/01/27 08:25:18;;;;;;;10.60;4.88;;;-1.00;99.90;;;;;;5082327;28;20032;-77
2023/01/27 08:27:44;;;;;;;12.75;5.50;;;-1.00;99.90;;;;;;5085159;28;20027;-77
2023/01/27 08:30:10;;;;;;;11.18;4.85;;;-1.00;99.90;;;;;;5082660;28;20025;-76
2023/01/27 08:32:36;;;;;;;11.50;4.32;;;-1.10;99.90;;;;;;5078363;28;20086;-78
2023/01/27 08:35:02;;;;;;;10.95;5.13;;;-1.10;99.90;;;;;;5073124;28;20024;-77
2023/01/27 08:37:28;;;;;;;10.45;4.38;;;-1.10;99.90;;;;;;5082492;28;20089;-78
2023/01/27 08:39:53;;;;;;;9.70;4.70;;;-1.00;99.90;;;;;;5081357;28;20544;-78
2023/01/27 08:42:20;;;;;;;9.23;4.75;;;-1.00;99.90;;;;;;5085704;28;20040;-77
2023/01/27 08:44:46;;;;;;;9.10;4.78;;;-1.00;99.90;;;;;;5082032;28;20036;-77
2023/01/27 08:47:11;;;;;;;12.10;4.78;;;-1.00;99.90;;;;;;5072085;28;20078;-78
2023/01/27 08:49:37;;;;;;;9.07;4.47;;;-0.90;99.90;;;;;;5072331;28;20040;-78
2023/01/27 08:52:05;;;;;;;9.95;4.38;;;-0.90;99.90;;;;;;5070484;28;20064;-77
2023/01/27 08:54:31;;;;;;;11.25;4.97;;;-0.90;99.90;;;;;;5077900;28;20074;-77
2023/01/27 08:56:56;;;;;;;10.85;4.90;;;-0.90;99.90;;;;;;5075864;28;20435;-78
2023/01/27 08:59:22;;;;;;;10.05;5.28;;;-0.90;99.90;;;;;;5070214;28;20037;-77
2023/01/27 09:01:48;;;;;;;9.52;4.75;;;-0.90;99.90;;;;;;5078210;28;20028;-78
2023/01/27 09:04:13;;;;;;;9.35;4.57;;;-0.90;99.90;;;;;;5068545;28;20431;-77
2023/01/27 09:06:39;;;;;;;12.00;4.55;;;-0.90;99.90;;;;;;5075080;28;20081;-77
2023/01/27 09:09:08;;;;;;;12.23;5.00;;;-0.90;99.90;;;;;;5079878;28;20089;-77
2023/01/27 09:11:35;;;;;;;10.52;5.10;;;-0.90;99.90;;;;;;5102702;28;20568;-77
2023/01/27 09:14:02;;;;;;;12.50;5.07;;;-0.80;99.90;;;;;;5100961;28;20023;-77
2023/01/27 09:16:28;;;;;;;8.25;4.05;;;-0.80;99.90;;;;;;5071558;28;20719;-77
2023/01/27 09:18:54;;;;;;;10.13;4.85;;;-0.80;99.90;;;;;;5086759;28;20031;-77
2023/01/27 09:21:19;;;;;;;11.23;5.00;;;-0.80;99.90;;;;;;5084336;28;20032;-77
2023/01/27 09:23:48;;;;;;;12.95;5.05;;;-0.70;99.90;;;;;;5088348;28;20024;-77
2023/01/27 09:26:14;;;;;;;9.32;4.63;;;-0.80;99.90;;;;;;5085031;28;20118;-78
2023/01/27 09:28:40;;;;;;;10.05;4.90;;;-0.80;99.90;;;;;;5073954;28;20512;-78
2023/01/27 09:31:08;;;;;;;11.30;5.00;;;-0.80;99.90;;;;;;5069585;28;20074;-77
2023/01/27 09:33:35;;;;;;;12.60;5.05;;;-0.90;99.90;;;;;;5074405;28;20040;-76
2023/01/27 09:36:05;;;;;;;11.73;5.18;;;-0.80;99.90;;;;;;5077951;28;20017;-77
2023/01/27 09:38:35;;;;;;;9.35;4.68;;;-0.80;99.90;;;;;;5091376;28;20069;-78
2023/01/27 09:41:28;;;;;;;9.55;4.55;;;-0.70;99.90;;;;;;5077214;28;20105;-77
2023/01/27 09:43:57;;;;;;;9.60;4.80;;;-0.70;99.90;;;;;;5078525;28;20029;-78
2023/01/27 09:46:35;;;;;;;11.73;5.43;;;-0.70;99.90;;;;;;5088262;28;20443;-77
2023/01/27 09:49:25;;;;;;;9.75;4.85;;;-0.70;99.90;;;;;;5084582;28;20024;-77
2023/01/27 09:52:22;;;;;;;10.77;5.35;;;-0.70;99.90;;;;;;5087896;28;20065;-77
2023/01/27 09:55:02;;;;;;;11.02;5.20;;;-0.70;99.90;;;;;;5075034;28;20457;-77
2023/01/27 09:57:47;;;;;;;12.55;5.93;;;-0.70;99.90;;;;;;5087967;28;20028;-77
2023/01/27 10:00:34;;;;;;;13.90;5.53;;;-0.60;99.90;;;;;;5095468;28;20020;-78
2023/01/27 10:03:24;;;;;;;9.85;5.20;;;-0.60;99.90;;;;;;5083093;28;20602;-77
2023/01/27 10:06:18;;;;;;;12.20;4.93;;;-0.60;99.90;;;;;;5085666;28;20096;-77
2023/01/27 10:08:57;;;;;;;9.15;4.40;;;-0.60;99.90;;;;;;5089951;28;20027;-77
2023/01/27 10:11:44;;;;;;;8.98;5.13;;;-0.50;99.90;;;;;;5061649;28;20032;-78
2023/01/27 10:14:25;;;;;;;11.13;4.75;;;-0.50;99.90;;;;;;5085267;28;20024;-77
2023/01/27 10:17:04;;;;;;;8.07;4.60;;;-0.40;99.90;;;;;;5085183;28;20039;-78
2023/01/27 10:19:49;;;;;;;7.75;4.32;;;-0.30;99.90;;;;;;5079343;28;20020;-77
2023/01/27 10:22:23;;;;;;;8.23;3.77;;;-0.30;99.90;;;;;;5081774;28;20036;-78
2023/01/27 10:24:57;;;;;;;7.25;3.90;;;-0.40;99.90;;;;;;5078223;28;20488;-77
2023/01/27 10:27:25;;;;;;;7.60;3.95;;;-0.40;99.90;;;;;;5059664;28;20059;-77
2023/01/27 10:29:50;;;;;;;6.05;3.42;;;-0.40;99.90;;;;;;5065640;28;20032;-78
2023/01/27 10:32:46;;;;;;;6.63;3.80;;;-0.40;99.90;;;;;;5071321;28;20016;-76
2023/01/27 10:35:19;;;;;;;8.85;3.90;;;-0.50;99.90;;;;;;5076849;28;20040;-77
2023/01/27 10:38:16;;;;;;;6.63;3.88;;;-0.50;99.90;;;;;;5061243;28;20033;-78
2023/01/27 10:41:01;;;;;;;5.65;3.58;;;-0.40;99.90;;;;;;5070287;28;20031;-74
2023/01/27 10:43:46;;;;;;;5.72;3.67;;;-0.40;99.90;;;;;;5069081;28;20039;-77
2023/01/27 10:46:39;;;;;;;7.00;3.85;;;-0.40;99.90;;;;;;5073261;28;20028;-77
2023/01/27 10:49:27;;;;;;;5.57;3.92;;;-0.40;99.90;;;;;;5082443;28;20039;-77
2023/01/27 10:51:59;;;;;;;5.75;3.20;;;-0.30;99.90;;;;;;5074087;28;20032;-76
2023/01/27 10:54:52;;;;;;;7.30;3.75;;;-0.40;99.90;;;;;;5075104;28;20036;-76
2023/01/27 10:57:25;;;;;;;9.55;4.18;;;-0.30;99.90;;;;;;5076793;28;20049;-75
2023/01/27 10:59:54;;;;;;;7.75;4.20;;;-0.30;99.90;;;;;;5074350;28;20024;-77
2023/01/27 11:02:58;;;;;;;10.65;5.00;;;-0.40;99.90;;;;;;5071809;28;20044;-77
2023/01/27 11:05:32;;;;;;;6.07;3.40;;;-0.40;99.90;;;;;;5060041;28;20446;-78
2023/01/27 11:08:20;;;;;;;8.20;4.30;;;-0.60;99.90;;;;;;5065380;28;20062;-76
2023/01/27 11:13:41;;;;;;;7.22;4.70;;;-0.70;99.90;;;;;;5081810;28;20028;-77
2023/01/27 11:16:16;;;;;;;8.18;4.60;;;-0.70;99.90;;;;;;5092516;27;20047;-77
2023/01/27 11:18:45;;;;;;;7.20;4.10;;;-0.60;99.90;;;;;;5067830;28;20106;-78
2023/01/27 11:21:26;;;;;;;6.55;4.25;;;-0.60;99.90;;;;;;5076794;28;20842;-76
2023/01/27 11:23:55;;;;;;;8.25;4.10;;;-0.60;99.90;;;;;;5072668;28;20037;-77
2023/01/27 11:26:37;;;;;;;8.05;4.40;;;-0.50;99.90;;;;;;5063936;28;20039;-77
2023/01/27 11:29:29;;;;;;;7.43;4.03;;;-0.40;99.90;;;;;;5075165;28;20032;-76
2023/01/27 11:32:14;;;;;;;8.68;3.83;;;-0.30;99.90;;;;;;5080649;28;20032;-77
2023/01/27 11:35:02;;;;;;;7.38;4.45;;;-0.20;99.90;;;;;;5086040;28;20035;-77
2023/01/27 11:37:37;;;;;;;6.15;3.95;;;-0.10;99.90;;;;;;5072982;28;20067;-77
2023/01/27 11:40:24;;;;;;;6.40;4.03;;;-0.10;99.90;;;;;;5067458;28;20024;-77
2023/01/27 11:42:50;;;;;;;6.03;3.92;;;-0.10;99.90;;;;;;5076987;28;20117;-77
2023/01/27 11:45:19;;;;;;;5.18;3.83;;;0.00;99.90;;;;;;5063069;28;20032;-77
2023/01/27 11:47:50;;;;;;;8.68;3.83;;;0.10;99.90;;;;;;5087063;28;20122;-75
2023/01/27 11:50:26;;;;;;;6.13;3.25;;;0.20;99.90;;;;;;5067137;28;20039;-75
2023/01/27 11:53:12;;;;;;;6.88;4.00;;;0.20;99.90;;;;;;5076409;28;20431;-76
2023/01/27 11:55:54;;;;;;;6.68;3.97;;;0.20;99.90;;;;;;5079386;28;20055;-76
2023/01/27 11:58:20;;;;;;;7.15;4.15;;;0.20;99.90;;;;;;5067618;28;20024;-76
2023/01/27 12:00:58;;;;;;;8.02;3.90;;;0.20;99.90;;;;;;5070232;28;20114;-77
2023/01/27 12:03:55;;;;;;;9.85;5.97;;;0.20;99.90;;;;;;5068331;28;20092;-77
2023/01/27 12:06:41;;;;;;;6.75;3.88;;;0.20;99.90;;;;;;5071189;28;20100;-74
2023/01/27 12:09:31;;;;;;;7.90;4.25;;;0.20;99.90;;;;;;5070679;28;20037;-75
2023/01/27 12:12:13;;;;;;;6.88;3.78;;;0.20;99.90;;;;;;5067227;28;20052;-76
2023/01/27 12:14:53;;;;;;;5.47;3.60;;;0.20;99.90;;;;;;5076917;28;20476;-76
2023/01/27 12:17:29;;;;;;;5.55;4.40;;;0.10;99.90;;;;;;5048471;28;20779;-76
2023/01/27 12:20:00;;;;;;;12.07;6.57;;;0.10;99.90;;;;;;5081944;28;20028;-77
2023/01/27 12:22:32;;;;;;;7.28;4.53;;;0.10;99.90;;;;;;5043347;28;20114;-75
2023/01/27 12:25:02;;;;;;;8.52;4.57;;;0.10;99.90;;;;;;5048188;28;20485;-77
2023/01/27 12:27:35;;;;;;;6.18;4.07;;;0.10;99.90;;;;;;5067638;28;20036;-76
2023/01/27 12:30:36;;;;;;;7.93;4.40;;;0.10;99.90;;;;;;5069196;28;20067;-76
2023/01/27 12:33:13;;;;;;;7.53;3.97;;;0.20;99.90;;;;;;5064498;28;20039;-77
2023/01/27 12:35:39;;;;;;;8.60;3.80;;;0.20;99.90;;;;;;5068233;28;20040;-76
2023/01/27 12:38:22;;;;;;;8.10;4.32;;;0.20;99.90;;;;;;5056145;28;20031;-76
2023/01/27 12:40:57;;;;;;;8.63;5.03;;;0.10;99.90;;;;;;5069155;28;20107;-76
2023/01/27 12:43:23;;;;;;;6.32;3.83;;;0.10;99.90;;;;;;5061304;28;20596;-75
2023/01/27 12:46:10;;;;;;;8.25;4.22;;;0.10;99.90;;;;;;5079544;28;20048;-75
2023/01/27 12:48:59;;;;;;;7.78;4.65;;;0.10;99.90;;;;;;5070493;28;20036;-76
2023/01/27 12:51:44;;;;;;;8.52;4.88;;;0.00;99.90;;;;;;5087389;28;20035;-76
2023/01/27 12:54:24;;;;;;;6.05;3.55;;;0.10;99.90;;;;;;5065306;28;20060;-78
2023/01/27 12:56:59;;;;;;;8.27;4.93;;;0.20;99.90;;;;;;5066628;28;20028;-76
2023/01/27 12:59:26;;;;;;;8.90;4.95;;;0.20;99.90;;;;;;5076660;28;20040;-75
2023/01/27 13:02:10;;;;;;;8.00;4.72;;;0.20;99.90;;;;;;5079753;28;20083;-74
2023/01/27 13:04:37;;;;;;;10.40;5.50;;;0.20;99.90;;;;;;5072026;28;20035;-77
2023/01/27 13:07:07;;;;;;;9.75;5.13;;;0.20;99.90;;;;;;5064396;28;20112;-75
2023/01/27 13:09:39;;;;;;;10.77;5.50;;;0.20;99.90;;;;;;5073550;28;20048;-76
2023/01/27 13:12:39;;;;;;;8.70;5.05;;;0.20;99.90;;;;;;5064394;28;20054;-76
2023/01/27 13:15:14;;;;;;;11.77;4.82;;;0.10;99.90;;;;;;5064328;28;20054;-76
2023/01/27 13:17:47;;;;;;;10.38;5.25;;;0.00;99.90;;;;;;5070073;28;20039;-77
2023/01/27 13:20:19;;;;;;;12.90;6.13;;;0.00;99.90;;;;;;5066013;28;20044;-77
2023/01/27 13:23:26;;;;;;;13.05;6.00;;;-0.10;99.90;;;;;;5061525;28;20032;-77
2023/01/27 13:25:56;;;;;;;15.48;7.47;;;-0.10;99.90;;;;;;4996331;28;20041;-77
2023/01/27 13:28:33;;;;;;;17.65;8.73;;;-0.10;99.90;;;;;;4986236;28;20324;-79
2023/01/27 13:31:07;;;;;;;15.35;7.00;;;-0.20;99.90;;;;;;5033667;28;20132;-77